Time;durP1;ratioP1;P1;durP2;ratioP2;P2;SDS_P1;SDS_P2;PMS_P1;PMS_P2;Temp;Humidity;BMP_temperature;BMP_pressure;BME280_temperature;BME280_humidity;BME280_pressure;Samples;Min_cycle;Max_cycle;Signal;HPM_P1;HPM_P2
2023/07/11 00:02:15;;;;;;;3.65;2.47;;;17.90;99.90;;;;;;4995098;28;20124;-72
2023/07/11 00:04:41;;;;;;;4.65;2.47;;;17.90;99.90;;;;;;4995325;28;20116;-71
2023/07/11 00:07:07;;;;;;;2.63;2.08;;;18.00;99.90;;;;;;5012960;28;20045;-72
2023/07/11 00:09:33;;;;;;;5.32;2.22;;;17.90;99.90;;;;;;4979437;28;20049;-72
2023/07/11 00:11:59;;;;;;;3.53;2.22;;;17.90;99.90;;;;;;5013430;28;20131;-74
2023/07/11 00:14:24;;;;;;;2.80;1.92;;;17.90;99.90;;;;;;5012724;28;20050;-72
2023/07/11 00:16:50;;;;;;;3.17;2.03;;;17.90;99.90;;;;;;5012839;28;20046;-71
2023/07/11 00:19:19;;;;;;;4.22;2.30;;;18.00;99.90;;;;;;5012736;28;20050;-71
2023/07/11 00:21:46;;;;;;;3.80;2.85;;;17.90;99.90;;;;;;5012738;28;20053;-71
2023/07/11 00:24:12;;;;;;;3.13;2.13;;;18.00;99.90;;;;;;5012661;28;20053;-71
2023/07/11 00:26:38;;;;;;;3.33;2.10;;;18.00;99.90;;;;;;4996000;28;20056;-73
2023/07/11 00:29:20;;;;;;;2.92;2.72;;;18.00;99.90;;;;;;5011532;28;20423;-72
2023/07/11 00:31:46;;;;;;;3.45;3.10;;;18.00;99.90;;;;;;5012721;28;20053;-71
2023/07/11 00:34:12;;;;;;;5.88;3.25;;;18.00;99.90;;;;;;4995449;28;20056;-71
2023/07/11 00:36:38;;;;;;;3.15;2.85;;;18.00;99.90;;;;;;5012569;28;20078;-75
2023/07/11 00:39:04;;;;;;;5.20;2.47;;;18.00;99.90;;;;;;5012646;28;20049;-72
2023/07/11 00:41:30;;;;;;;4.60;2.80;;;18.00;99.90;;;;;;5013017;28;20046;-72
2023/07/11 00:43:56;;;;;;;3.88;2.72;;;18.00;99.90;;;;;;5012420;28;20096;-71
2023/07/11 00:46:22;;;;;;;3.88;2.50;;;18.00;99.90;;;;;;4995898;28;20058;-71
2023/07/11 00:48:57;;;;;;;2.95;2.65;;;18.00;99.90;;;;;;5012554;28;20363;-73
2023/07/11 00:51:28;;;;;;;8.30;3.38;;;18.00;99.90;;;;;;5012538;28;20042;-72
2023/07/11 00:53:55;;;;;;;3.72;2.28;;;18.00;99.90;;;;;;5012863;28;20053;-73
2023/07/11 00:56:25;;;;;;;5.03;3.20;;;18.00;99.90;;;;;;5012062;28;20068;-71
2023/07/11 00:58:53;;;;;;;5.80;3.08;;;18.00;99.90;;;;;;5012151;28;20477;-71
2023/07/11 01:01:19;;;;;;;2.90;2.67;;;18.00;99.90;;;;;;5012439;28;20155;-71
2023/07/11 01:03:46;;;;;;;2.67;2.45;;;18.00;99.90;;;;;;4994899;28;20106;-71
2023/07/11 01:06:15;;;;;;;5.90;3.10;;;18.00;99.90;;;;;;5015480;28;20093;-70
2023/07/11 01:08:42;;;;;;;4.63;3.33;;;18.00;99.90;;;;;;5016227;28;20046;-70
2023/07/11 01:11:08;;;;;;;6.28;3.38;;;18.00;99.90;;;;;;5016650;28;20180;-71
2023/07/11 01:13:34;;;;;;;3.90;3.20;;;18.00;99.90;;;;;;5016318;28;20111;-71
2023/07/11 01:16:00;;;;;;;4.00;3.05;;;17.90;99.90;;;;;;4998831;28;20111;-71
2023/07/11 01:18:26;;;;;;;5.18;2.97;;;17.90;99.90;;;;;;4998791;28;20466;-70
2023/07/11 01:20:53;;;;;;;4.68;3.25;;;17.90;99.90;;;;;;5015772;28;20049;-70
2023/07/11 01:23:20;;;;;;;8.10;3.90;;;17.90;99.90;;;;;;5015803;28;20057;-71
2023/07/11 01:25:46;;;;;;;6.13;3.35;;;17.90;99.90;;;;;;4999045;28;20492;-70
2023/07/11 01:28:13;;;;;;;4.28;3.15;;;17.80;99.90;;;;;;5015890;28;20058;-70
2023/07/11 01:30:39;;;;;;;3.75;3.10;;;17.80;99.90;;;;;;5016075;28;20053;-70
2023/07/11 01:33:05;;;;;;;4.55;2.78;;;17.90;99.90;;;;;;5015538;28;20046;-73
2023/07/11 01:35:31;;;;;;;3.45;3.15;;;17.90;99.90;;;;;;5016175;28;20057;-71
2023/07/11 01:37:56;;;;;;;3.10;2.70;;;17.90;99.90;;;;;;4997989;28;20490;-71
2023/07/11 01:40:23;;;;;;;3.38;3.05;;;17.90;99.90;;;;;;5014994;28;20507;-71
2023/07/11 01:42:49;;;;;;;4.43;3.60;;;17.90;99.90;;;;;;4998488;28;20074;-72
2023/07/11 01:45:15;;;;;;;4.15;3.67;;;17.90;99.90;;;;;;5015315;28;20486;-72
2023/07/11 01:47:41;;;;;;;5.00;3.10;;;17.80;99.90;;;;;;4997576;28;20053;-74
2023/07/11 01:50:08;;;;;;;6.22;3.80;;;17.80;99.90;;;;;;5015268;28;20052;-71
2023/07/11 01:52:35;;;;;;;3.42;3.05;;;17.90;99.90;;;;;;5015465;28;20053;-72
2023/07/11 01:55:00;;;;;;;5.00;3.63;;;17.80;99.90;;;;;;4997905;28;20053;-70
2023/07/11 01:57:26;;;;;;;6.00;3.20;;;17.80;99.90;;;;;;5015043;28;20489;-70
2023/07/11 01:59:52;;;;;;;6.88;3.88;;;17.80;99.90;;;;;;5015117;28;20089;-71
2023/07/11 02:02:19;;;;;;;5.18;4.07;;;17.80;99.90;;;;;;4997652;28;20050;-70
2023/07/11 02:04:45;;;;;;;5.07;3.30;;;17.80;99.90;;;;;;5015043;28;20454;-71
2023/07/11 02:07:11;;;;;;;5.18;3.42;;;17.70;99.90;;;;;;5014755;28;20045;-71
2023/07/11 02:09:37;;;;;;;6.50;3.80;;;17.70;99.90;;;;;;5014872;28;20046;-71
2023/07/11 02:12:03;;;;;;;4.63;3.33;;;17.60;99.90;;;;;;4997531;28;20050;-71
2023/07/11 02:14:29;;;;;;;4.65;3.40;;;17.60;99.90;;;;;;5015271;28;20447;-73
2023/07/11 02:16:56;;;;;;;4.25;3.40;;;17.60;99.90;;;;;;4997288;28;20053;-71
2023/07/11 02:19:23;;;;;;;3.72;3.40;;;17.60;99.90;;;;;;4997619;28;20045;-70
2023/07/11 02:21:49;;;;;;;5.53;3.25;;;17.50;99.90;;;;;;5014685;28;20049;-72
2023/07/11 02:24:16;;;;;;;3.88;2.70;;;17.60;99.90;;;;;;4981767;28;20053;-72
2023/07/11 02:26:43;;;;;;;5.95;3.30;;;17.60;99.90;;;;;;4997042;28;20042;-70
2023/07/11 02:29:09;;;;;;;4.32;2.90;;;17.60;99.90;;;;;;5014977;28;20046;-72
2023/07/11 02:31:36;;;;;;;4.47;3.20;;;17.60;99.90;;;;;;5014716;28;20445;-71
2023/07/11 02:34:02;;;;;;;3.42;3.13;;;17.60;99.90;;;;;;5014525;28;20132;-70
2023/07/11 02:36:28;;;;;;;5.65;3.03;;;17.60;99.90;;;;;;4997073;28;20042;-72
2023/07/11 02:38:54;;;;;;;6.47;3.50;;;17.60;99.90;;;;;;5014722;28;20056;-72
2023/07/11 02:41:20;;;;;;;4.32;2.95;;;17.60;99.90;;;;;;5014226;28;20042;-71
2023/07/11 02:43:49;;;;;;;6.35;2.53;;;17.60;99.90;;;;;;4996697;28;20082;-70
2023/07/11 02:46:15;;;;;;;4.80;3.47;;;17.60;99.90;;;;;;5014196;28;20050;-72
2023/07/11 02:48:42;;;;;;;4.15;3.00;;;17.60;99.90;;;;;;5014149;28;20049;-71
2023/07/11 02:51:07;;;;;;;3.63;3.17;;;17.70;99.90;;;;;;5014164;28;20050;-71
2023/07/11 02:53:33;;;;;;;3.88;2.85;;;17.70;99.90;;;;;;4996904;28;20116;-70
2023/07/11 02:55:59;;;;;;;4.38;2.63;;;17.70;99.90;;;;;;5014083;28;20470;-72
2023/07/11 02:58:25;;;;;;;3.90;2.42;;;17.70;99.90;;;;;;5014198;28;20416;-71
2023/07/11 03:00:53;;;;;;;3.05;2.55;;;17.70;99.90;;;;;;5013972;28;20439;-71
2023/07/11 03:03:19;;;;;;;4.82;3.05;;;17.70;99.90;;;;;;5013930;28;20065;-70
2023/07/11 03:05:47;;;;;;;3.55;3.25;;;17.70;99.90;;;;;;5013914;28;20053;-71
2023/07/11 03:08:14;;;;;;;4.50;2.90;;;17.70;99.90;;;;;;5016712;28;20108;-72
2023/07/11 03:10:40;;;;;;;5.63;3.40;;;17.70;99.90;;;;;;5016345;28;20076;-71
2023/07/11 03:13:05;;;;;;;3.83;2.63;;;17.70;99.90;;;;;;5014772;28;20045;-71
2023/07/11 03:15:33;;;;;;;4.97;3.20;;;17.70;99.90;;;;;;5015234;28;20049;-72
2023/07/11 03:18:00;;;;;;;6.15;3.20;;;17.70;99.90;;;;;;5013637;28;20463;-71
2023/07/11 03:20:26;;;;;;;5.82;2.88;;;17.60;99.90;;;;;;5013575;28;20057;-71
2023/07/11 03:22:51;;;;;;;3.72;3.08;;;17.60;99.90;;;;;;5013627;28;20495;-70
2023/07/11 03:25:17;;;;;;;4.13;2.90;;;17.40;99.90;;;;;;5013490;28;20046;-71
2023/07/11 03:27:43;;;;;;;5.07;3.15;;;17.60;99.90;;;;;;4995472;28;20049;-71
2023/07/11 03:30:09;;;;;;;4.25;3.22;;;17.60;99.90;;;;;;4980475;28;20416;-71
2023/07/11 03:32:35;;;;;;;4.88;3.45;;;17.60;99.90;;;;;;4995850;28;20077;-71
2023/07/11 03:35:01;;;;;;;5.55;2.90;;;17.60;99.90;;;;;;5013017;28;20057;-70
2023/07/11 03:37:26;;;;;;;7.57;3.88;;;17.60;99.90;;;;;;5013156;28;20042;-70
2023/07/11 03:39:52;;;;;;;4.78;2.83;;;17.60;99.90;;;;;;4996388;28;20046;-70
2023/07/11 03:42:18;;;;;;;4.05;3.28;;;17.60;99.90;;;;;;5012942;28;20125;-71
2023/07/11 03:44:43;;;;;;;4.05;3.40;;;17.60;99.90;;;;;;5013491;28;20046;-71
2023/07/11 03:47:09;;;;;;;6.22;3.20;;;17.60;99.90;;;;;;4996015;28;20046;-71
2023/07/11 03:49:35;;;;;;;3.63;2.60;;;17.60;99.90;;;;;;5013534;28;20049;-70
2023/07/11 03:52:01;;;;;;;3.08;2.70;;;17.60;99.90;;;;;;4995756;28;20046;-70
2023/07/11 03:54:27;;;;;;;3.90;2.53;;;17.70;99.90;;;;;;4996172;28;20129;-70
2023/07/11 03:56:52;;;;;;;4.00;3.47;;;17.50;99.90;;;;;;5012923;28;20204;-72
2023/07/11 03:59:19;;;;;;;4.78;2.58;;;17.70;99.90;;;;;;4995499;28;20046;-72
2023/07/11 04:01:46;;;;;;;4.60;3.75;;;17.70;99.90;;;;;;5013150;28;20042;-71
2023/07/11 04:04:12;;;;;;;3.30;2.55;;;17.70;99.90;;;;;;5013354;28;20089;-70
2023/07/11 04:06:38;;;;;;;5.55;3.10;;;17.70;99.90;;;;;;4996042;28;20069;-72
2023/07/11 04:09:03;;;;;;;5.35;2.72;;;17.80;99.90;;;;;;5013368;28;20050;-70
2023/07/11 04:11:29;;;;;;;3.42;2.58;;;17.80;99.90;;;;;;5012452;28;20053;-71
2023/07/11 04:13:55;;;;;;;2.67;2.35;;;17.80;99.90;;;;;;5012849;28;20052;-71
2023/07/11 04:16:20;;;;;;;2.85;2.40;;;17.80;99.90;;;;;;4995389;28;20368;-71
2023/07/11 04:18:46;;;;;;;5.35;3.42;;;17.80;99.90;;;;;;4995517;28;20129;-71
2023/07/11 04:21:12;;;;;;;2.50;2.30;;;17.80;99.90;;;;;;5012711;28;20054;-71
2023/07/11 04:23:38;;;;;;;3.63;2.80;;;17.80;99.90;;;;;;5013103;28;20053;-72
2023/07/11 04:26:03;;;;;;;5.57;3.17;;;17.80;99.90;;;;;;4995856;28;20053;-72
2023/07/11 04:28:30;;;;;;;4.40;2.80;;;17.80;99.90;;;;;;5012624;28;20046;-72
2023/07/11 04:30:56;;;;;;;3.55;3.13;;;17.80;99.90;;;;;;5012607;28;20416;-71
2023/07/11 04:33:21;;;;;;;5.78;3.35;;;17.80;99.90;;;;;;4995261;28;20489;-70
2023/07/11 04:35:47;;;;;;;9.90;3.85;;;17.80;99.90;;;;;;5012863;28;20077;-70
2023/07/11 04:38:13;;;;;;;3.83;2.92;;;17.80;99.90;;;;;;5013015;28;20042;-72
2023/07/11 04:40:39;;;;;;;3.75;2.55;;;17.80;99.90;;;;;;5016490;28;20487;-71
2023/07/11 04:43:05;;;;;;;3.42;2.75;;;17.80;99.90;;;;;;4999733;28;20049;-72
2023/07/11 04:45:30;;;;;;;4.32;3.35;;;17.80;99.90;;;;;;5017246;28;20383;-70
2023/07/11 04:47:56;;;;;;;2.90;2.45;;;17.80;99.90;;;;;;5016440;28;20129;-73
2023/07/11 04:50:22;;;;;;;5.55;3.17;;;17.80;99.90;;;;;;4982845;28;20058;-71
2023/07/11 04:52:49;;;;;;;5.28;3.10;;;17.90;99.90;;;;;;4998808;28;20042;-71
2023/07/11 04:55:15;;;;;;;5.50;2.78;;;17.90;99.90;;;;;;4999017;28;20516;-71
2023/07/11 04:57:40;;;;;;;6.45;3.10;;;17.90;99.90;;;;;;4998470;28;20038;-72
2023/07/11 05:00:08;;;;;;;6.38;3.00;;;17.90;99.90;;;;;;5016012;28;20519;-71
2023/07/11 05:02:34;;;;;;;5.35;3.10;;;17.90;99.90;;;;;;5015828;28;20103;-71
2023/07/11 05:05:01;;;;;;;7.70;4.13;;;17.90;99.90;;;;;;4998402;28;20054;-71
2023/07/11 05:07:27;;;;;;;5.05;3.25;;;17.90;99.90;;;;;;4998584;28;20100;-71
2023/07/11 05:09:52;;;;;;;4.03;3.30;;;17.90;99.90;;;;;;5016191;28;20107;-71
2023/07/11 05:12:18;;;;;;;3.88;3.53;;;18.00;99.90;;;;;;5015515;28;20048;-71
2023/07/11 05:14:43;;;;;;;5.35;3.33;;;18.00;99.90;;;;;;5015668;28;20046;-71
2023/07/11 05:17:09;;;;;;;4.28;3.50;;;18.10;99.90;;;;;;4998347;28;20057;-71
2023/07/11 05:19:35;;;;;;;4.47;3.15;;;18.20;99.90;;;;;;4998303;28;20042;-73
2023/07/11 05:22:00;;;;;;;5.97;3.22;;;18.30;99.90;;;;;;5015565;28;20128;-71
2023/07/11 05:24:26;;;;;;;4.10;3.55;;;18.40;99.90;;;;;;5015144;28;20132;-71
2023/07/11 05:26:52;;;;;;;5.53;3.20;;;18.60;99.90;;;;;;4998331;28;20046;-71
2023/07/11 05:29:17;;;;;;;4.90;4.25;;;18.80;99.90;;;;;;5015311;28;20046;-72
2023/07/11 05:31:43;;;;;;;5.55;3.40;;;18.90;99.90;;;;;;5015218;28;20049;-72
2023/07/11 05:34:10;;;;;;;4.40;3.83;;;19.10;99.90;;;;;;5015314;28;20051;-72
2023/07/11 05:36:36;;;;;;;5.68;4.13;;;19.30;99.90;;;;;;4997938;28;20049;-71
2023/07/11 05:39:10;;;;;;;6.30;4.72;;;19.40;99.90;;;;;;5015369;28;20491;-72
2023/07/11 05:41:38;;;;;;;5.07;3.92;;;19.60;99.90;;;;;;5015536;28;20052;-71
2023/07/11 05:44:04;;;;;;;5.38;3.60;;;19.80;99.90;;;;;;5015749;28;20056;-71
2023/07/11 05:46:31;;;;;;;5.82;3.97;;;20.00;99.90;;;;;;5014967;28;20485;-71
2023/07/11 05:48:57;;;;;;;5.95;4.03;;;20.10;99.90;;;;;;5015303;28;20050;-71
2023/07/11 05:51:24;;;;;;;7.63;3.92;;;20.20;99.90;;;;;;5014299;28;20050;-74
2023/07/11 05:53:50;;;;;;;5.53;4.50;;;20.30;99.90;;;;;;5014880;28;20133;-73
2023/07/11 05:56:18;;;;;;;5.72;3.70;;;20.30;99.90;;;;;;4997696;28;20045;-71
2023/07/11 05:58:44;;;;;;;6.20;3.88;;;20.30;99.90;;;;;;4997479;28;20046;-72
2023/07/11 06:01:21;;;;;;;10.25;4.20;;;20.50;99.90;;;;;;4981754;28;20069;-71
2023/07/11 06:03:50;;;;;;;5.38;3.60;;;20.60;99.90;;;;;;4997065;28;20054;-72
2023/07/11 06:06:17;;;;;;;7.38;4.22;;;20.70;99.90;;;;;;5014860;28;20388;-71
2023/07/11 06:08:43;;;;;;;5.57;3.92;;;20.80;99.90;;;;;;5014569;28;20096;-72
2023/07/11 06:11:09;;;;;;;6.55;3.80;;;20.90;99.90;;;;;;5013401;28;20087;-71
2023/07/11 06:13:38;;;;;;;6.05;4.22;;;21.00;99.90;;;;;;5014470;28;20140;-74
2023/07/11 06:16:22;;;;;;;5.90;3.97;;;21.10;99.90;;;;;;5014334;28;20384;-73
2023/07/11 06:18:49;;;;;;;6.18;3.50;;;21.30;99.90;;;;;;5014255;28;20375;-71
2023/07/11 06:21:15;;;;;;;9.93;4.47;;;21.40;99.90;;;;;;5014822;28;20093;-71
2023/07/11 06:23:41;;;;;;;5.53;3.63;;;21.50;99.90;;;;;;5014317;28;20356;-74
2023/07/11 06:26:09;;;;;;;6.13;3.45;;;21.80;99.90;;;;;;4997045;28;20050;-71
2023/07/11 06:28:34;;;;;;;5.85;3.65;;;22.30;99.90;;;;;;4997622;28;20052;-72
2023/07/11 06:31:00;;;;;;;7.40;3.55;;;23.20;99.90;;;;;;5014529;28;20399;-72
2023/07/11 06:33:27;;;;;;;5.30;3.70;;;23.80;99.90;;;;;;5013105;28;20046;-71
2023/07/11 06:35:53;;;;;;;4.65;3.45;;;24.20;99.90;;;;;;4997104;28;20061;-73
2023/07/11 06:38:20;;;;;;;6.97;3.78;;;24.70;99.90;;;;;;5014253;28;20050;-70
2023/07/11 06:40:55;;;;;;;4.05;3.17;;;24.80;98.10;;;;;;5014217;28;20052;-71
2023/07/11 06:43:22;;;;;;;5.55;3.47;;;25.20;98.50;;;;;;5014116;28;20046;-71
2023/07/11 06:45:49;;;;;;;5.90;2.85;;;25.70;98.00;;;;;;5014053;28;20104;-72
2023/07/11 06:48:16;;;;;;;4.88;3.05;;;26.30;97.50;;;;;;4996645;28;20415;-70
2023/07/11 06:50:46;;;;;;;5.88;3.50;;;26.40;96.10;;;;;;5014264;28;20050;-70
2023/07/11 06:53:12;;;;;;;4.80;2.85;;;26.10;96.20;;;;;;5013839;28;20057;-70
2023/07/11 06:55:45;;;;;;;4.93;3.17;;;26.10;96.50;;;;;;5014489;28;20058;-71
2023/07/11 06:58:11;;;;;;;3.60;2.88;;;25.90;94.90;;;;;;5014800;28;20482;-70
2023/07/11 07:00:37;;;;;;;3.40;2.88;;;25.90;96.30;;;;;;5015059;28;20044;-70
2023/07/11 07:03:02;;;;;;;5.80;3.28;;;25.60;96.00;;;;;;5013596;28;20092;-70
2023/07/11 07:05:28;;;;;;;4.72;3.42;;;25.70;96.20;;;;;;5014437;28;20046;-72
2023/07/11 07:07:54;;;;;;;4.25;3.03;;;26.30;95.80;;;;;;5014422;28;20465;-71
2023/07/11 07:10:20;;;;;;;5.43;3.22;;;26.70;95.30;;;;;;4996362;28;20068;-73
2023/07/11 07:12:46;;;;;;;4.93;2.80;;;27.20;95.00;;;;;;5013762;28;20042;-70
2023/07/11 07:15:13;;;;;;;6.20;2.75;;;27.90;94.70;;;;;;5013432;28;20125;-71
2023/07/11 07:17:38;;;;;;;6.53;3.55;;;27.80;94.40;;;;;;5012268;28;20057;-71
2023/07/11 07:20:05;;;;;;;4.65;3.10;;;27.80;94.20;;;;;;5013648;28;20041;-71
2023/07/11 07:22:30;;;;;;;9.23;2.88;;;28.10;93.40;;;;;;4996773;28;20381;-71
2023/07/11 07:25:03;;;;;;;6.40;3.33;;;28.10;93.80;;;;;;5133850;27;1271854;-71
2023/07/11 07:27:28;;;;;;;6.88;2.92;;;28.00;93.60;;;;;;5159083;27;20046;-71
2023/07/11 07:29:55;;;;;;;6.35;2.83;;;27.90;94.00;;;;;;5141434;27;20123;-70
2023/07/11 07:32:20;;;;;;;4.60;2.95;;;28.00;94.00;;;;;;5161822;27;20046;-70
2023/07/11 07:34:47;;;;;;;5.53;3.05;;;28.20;93.80;;;;;;5159894;27;20050;-71
2023/07/11 07:37:13;;;;;;;4.57;2.58;;;28.60;93.90;;;;;;5157160;27;20207;-70
2023/07/11 07:39:39;;;;;;;5.53;3.83;;;28.70;93.40;;;;;;5157152;27;20046;-71
2023/07/11 07:42:05;;;;;;;3.33;2.70;;;28.60;93.10;;;;;;5140002;27;20494;-72
2023/07/11 07:44:31;;;;;;;4.43;2.83;;;28.40;92.90;;;;;;5147579;27;20031;-69
2023/07/11 07:46:57;;;;;;;6.13;3.10;;;27.80;93.00;;;;;;5159862;27;20039;-69
2023/07/11 07:49:22;;;;;;;10.23;3.72;;;27.50;93.10;;;;;;5140392;27;20569;-69
2023/07/11 07:51:48;;;;;;;3.53;3.03;;;27.50;92.90;;;;;;5171085;27;20826;-71
2023/07/11 07:54:13;;;;;;;5.18;3.13;;;27.10;92.90;;;;;;5162962;27;20087;-72
2023/07/11 07:56:39;;;;;;;5.57;3.30;;;27.20;93.00;;;;;;5134834;27;20799;-70
2023/07/11 07:59:05;;;;;;;3.15;2.60;;;27.10;93.00;;;;;;5152803;27;20562;-72
2023/07/11 08:01:31;;;;;;;7.28;3.53;;;27.10;93.20;;;;;;5156954;27;20107;-70
2023/07/11 08:03:57;;;;;;;4.47;2.70;;;27.40;93.20;;;;;;5170167;27;20038;-70
2023/07/11 08:06:23;;;;;;;3.70;2.67;;;27.90;92.90;;;;;;5165890;27;20044;-70
2023/07/11 08:08:50;;;;;;;3.75;2.85;;;29.00;92.80;;;;;;5159211;27;20132;-71
2023/07/11 08:11:17;;;;;;;4.85;3.25;;;29.60;92.40;;;;;;5158937;27;20057;-70
2023/07/11 08:13:44;;;;;;;6.10;3.53;;;29.70;92.10;;;;;;5157281;27;20103;-70
2023/07/11 08:16:10;;;;;;;4.45;2.55;;;29.80;91.50;;;;;;5157190;27;20142;-71
2023/07/11 08:18:36;;;;;;;6.10;2.75;;;29.90;91.80;;;;;;5159306;27;20447;-70
2023/07/11 08:21:01;;;;;;;5.13;3.17;;;29.70;91.40;;;;;;5160138;27;20099;-72
2023/07/11 08:23:28;;;;;;;3.75;3.00;;;29.40;91.10;;;;;;5154945;27;20585;-70
2023/07/11 08:25:55;;;;;;;7.00;3.20;;;28.90;91.30;;;;;;5157024;27;20053;-72
2023/07/11 08:28:20;;;;;;;3.60;2.60;;;28.90;91.40;;;;;;5159064;27;20042;-70
2023/07/11 08:30:46;;;;;;;3.28;2.97;;;29.20;91.80;;;;;;5148922;27;20616;-70
2023/07/11 08:33:12;;;;;;;5.90;2.92;;;29.10;90.80;;;;;;5154838;27;20362;-70
2023/07/11 08:35:38;;;;;;;4.53;2.45;;;29.30;91.10;;;;;;5147363;27;20043;-71
2023/07/11 08:38:10;;;;;;;5.47;2.83;;;29.90;91.00;;;;;;5141813;27;20256;-70
2023/07/11 08:40:41;;;;;;;3.55;2.13;;;30.10;89.60;;;;;;5125146;27;20108;-70
2023/07/11 08:43:07;;;;;;;3.00;2.22;;;30.20;89.60;;;;;;5141801;27;20039;-70
2023/07/11 08:45:41;;;;;;;5.05;2.83;;;30.60;89.60;;;;;;5142754;27;20081;-70
2023/07/11 08:48:20;;;;;;;4.13;2.65;;;30.50;89.20;;;;;;5141004;27;20054;-70
2023/07/11 08:51:25;;;;;;;5.00;2.88;;;30.50;89.40;;;;;;5129006;27;20043;-71
2023/07/11 08:54:04;;;;;;;3.13;2.28;;;30.20;88.80;;;;;;5114821;27;20466;-71
2023/07/11 08:56:40;;;;;;;4.25;2.67;;;30.30;90.00;;;;;;5141545;27;20065;-72
2023/07/11 08:59:37;;;;;;;4.13;2.90;;;30.60;90.30;;;;;;5142407;27;20085;-70
2023/07/11 09:02:09;;;;;;;3.45;2.55;;;30.60;89.00;;;;;;5117781;27;20069;-73
2023/07/11 09:04:43;;;;;;;4.88;2.20;;;30.40;89.30;;;;;;5129699;27;20046;-71
2023/07/11 09:07:34;;;;;;;3.95;2.40;;;30.70;90.10;;;;;;5140319;27;20054;-71
2023/07/11 09:10:00;;;;;;;4.50;2.90;;;31.30;88.80;;;;;;5133589;27;20047;-71
2023/07/11 09:12:50;;;;;;;5.32;3.00;;;31.90;87.90;;;;;;5148969;27;20051;-70
2023/07/11 09:15:46;;;;;;;5.18;2.60;;;32.70;88.50;;;;;;5115410;27;20043;-71
2023/07/11 09:18:28;;;;;;;3.42;2.35;;;32.70;85.30;;;;;;5103691;27;20062;-70
2023/07/11 09:21:14;;;;;;;2.72;1.95;;;32.70;86.00;;;;;;5144599;27;20042;-70
2023/07/11 09:24:13;;;;;;;6.03;2.40;;;33.30;86.00;;;;;;5142948;27;20389;-71
2023/07/11 09:26:49;;;;;;;4.97;1.80;;;33.50;83.20;;;;;;5119606;27;20054;-71
2023/07/11 09:29:16;;;;;;;5.00;2.22;;;33.50;82.50;;;;;;5138026;27;20042;-71
2023/07/11 09:31:56;;;;;;;4.95;2.33;;;33.60;84.40;;;;;;5143632;27;20075;-71
2023/07/11 09:34:35;;;;;;;4.45;2.58;;;32.90;80.90;;;;;;5128376;27;20098;-70
2023/07/11 09:37:14;;;;;;;6.57;2.00;;;32.60;79.20;;;;;;5154346;27;20038;-70
2023/07/11 09:39:49;;;;;;;4.05;1.90;;;32.50;82.10;;;;;;5138297;27;20291;-71
2023/07/11 09:42:57;;;;;;;4.43;2.35;;;32.30;79.30;;;;;;5154618;27;20057;-70
2023/07/11 09:45:33;;;;;;;2.80;2.20;;;32.50;82.50;;;;;;5053304;28;20070;-73
2023/07/11 09:48:10;;;;;;;3.40;2.30;;;32.70;81.60;;;;;;5138526;27;20058;-71
2023/07/11 09:50:59;;;;;;;3.83;2.00;;;32.80;81.00;;;;;;5121580;27;20133;-72
2023/07/11 09:53:28;;;;;;;5.03;2.40;;;33.00;80.70;;;;;;5132622;27;20058;-71
2023/07/11 09:56:01;;;;;;;6.22;1.88;;;33.00;81.30;;;;;;5130480;27;20050;-67
2023/07/11 09:58:31;;;;;;;5.22;2.15;;;33.00;79.50;;;;;;5139930;27;20075;-70
2023/07/11 10:01:01;;;;;;;4.35;1.63;;;33.00;80.70;;;;;;5141787;27;20042;-72
2023/07/11 10:03:28;;;;;;;4.32;2.15;;;32.70;79.30;;;;;;5113066;27;20042;-73
2023/07/11 10:05:55;;;;;;;1.83;1.58;;;32.30;78.70;;;;;;5146361;27;20047;-70
2023/07/11 10:08:34;;;;;;;3.55;2.13;;;32.10;77.50;;;;;;5139364;27;20122;-71
2023/07/11 10:11:06;;;;;;;4.03;1.92;;;32.20;79.50;;;;;;5136365;27;20466;-71
2023/07/11 10:13:33;;;;;;;3.85;1.67;;;32.40;77.80;;;;;;5145527;27;20117;-71
2023/07/11 10:15:59;;;;;;;3.05;1.70;;;32.50;80.00;;;;;;5141114;27;20075;-71
2023/07/11 10:18:27;;;;;;;5.00;2.33;;;32.70;79.40;;;;;;5120971;27;21250;-71
2023/07/11 10:20:58;;;;;;;3.42;1.98;;;32.90;79.30;;;;;;5150857;27;20240;-72
2023/07/11 10:23:26;;;;;;;3.20;1.83;;;32.80;78.90;;;;;;5145828;27;20083;-71
2023/07/11 10:26:22;;;;;;;3.33;1.77;;;32.80;78.80;;;;;;5139276;27;20054;-71
2023/07/11 10:29:12;;;;;;;5.45;2.10;;;32.80;77.20;;;;;;5106013;27;20047;-71
2023/07/11 10:31:44;;;;;;;3.15;2.00;;;33.20;77.30;;;;;;5140481;27;20047;-73
2023/07/11 10:34:24;;;;;;;5.90;1.88;;;33.50;77.90;;;;;;5153074;27;20069;-71
2023/07/11 10:36:52;;;;;;;4.85;2.35;;;33.70;78.20;;;;;;5129240;27;20125;-70
2023/07/11 10:39:44;;;;;;;4.05;2.05;;;33.50;78.80;;;;;;5156950;27;20046;-71
2023/07/11 10:42:22;;;;;;;4.10;2.10;;;32.80;78.00;;;;;;5151521;27;20052;-71
2023/07/11 10:44:53;;;;;;;3.85;2.30;;;32.30;78.90;;;;;;5152878;27;20038;-71
2023/07/11 10:47:28;;;;;;;3.92;2.10;;;32.00;79.10;;;;;;5144710;27;20042;-71
2023/07/11 10:49:56;;;;;;;3.47;2.20;;;32.30;80.40;;;;;;5140530;27;20051;-72
2023/07/11 10:52:26;;;;;;;3.13;2.22;;;32.50;80.60;;;;;;5141060;27;20042;-71
2023/07/11 10:55:18;;;;;;;5.03;2.25;;;32.60;79.90;;;;;;5141709;27;20059;-71
2023/07/11 10:57:44;;;;;;;5.18;2.47;;;32.70;80.40;;;;;;5139425;27;20149;-72
2023/07/11 11:00:21;;;;;;;3.08;1.92;;;33.00;80.80;;;;;;5121850;27;20058;-71
2023/07/11 11:02:49;;;;;;;4.50;1.88;;;32.80;79.20;;;;;;5135564;27;20632;-71
2023/07/11 11:05:21;;;;;;;2.97;2.05;;;33.20;80.10;;;;;;5138904;27;20042;-72
2023/07/11 11:08:00;;;;;;;4.05;2.55;;;33.30;80.00;;;;;;5142612;27;20114;-74
2023/07/11 11:10:48;;;;;;;6.32;2.17;;;33.20;77.90;;;;;;5116741;27;20111;-73
2023/07/11 11:13:32;;;;;;;4.22;1.80;;;32.80;79.10;;;;;;5121899;27;20125;-74
2023/07/11 11:16:11;;;;;;;3.35;1.90;;;32.80;78.80;;;;;;5114404;27;20071;-71
2023/07/11 11:19:24;;;;;;;3.53;1.83;;;32.80;77.20;;;;;;5145017;27;20046;-72
2023/07/11 11:22:01;;;;;;;4.28;1.98;;;32.30;78.00;;;;;;5065812;27;20100;-73
2023/07/11 11:24:54;;;;;;;5.40;1.92;;;32.30;78.80;;;;;;5132628;27;20072;-71
2023/07/11 11:27:50;;;;;;;3.40;1.85;;;32.60;80.40;;;;;;5154021;27;20046;-72
2023/07/11 11:30:30;;;;;;;1.88;1.70;;;32.60;78.40;;;;;;5131228;27;20059;-72
2023/07/11 11:33:21;;;;;;;3.33;1.70;;;32.70;77.40;;;;;;5135882;27;20050;-72
2023/07/11 11:35:47;;;;;;;3.40;2.30;;;32.40;76.80;;;;;;5114345;27;20062;-74
2023/07/11 11:38:35;;;;;;;1.92;1.70;;;32.30;78.50;;;;;;5147948;27;20050;-72
2023/07/11 11:41:09;;;;;;;5.18;2.17;;;32.00;76.80;;;;;;5143338;27;20043;-73
2023/07/11 11:43:35;;;;;;;3.60;1.80;;;32.00;77.20;;;;;;5139365;27;20091;-73
2023/07/11 11:46:05;;;;;;;3.35;1.85;;;32.00;78.00;;;;;;5118889;27;20158;-71
2023/07/11 11:48:34;;;;;;;4.55;1.98;;;32.00;77.50;;;;;;5139032;27;20050;-72
2023/07/11 11:51:04;;;;;;;3.88;2.00;;;32.00;77.50;;;;;;5138226;27;20831;-70
2023/07/11 11:53:44;;;;;;;3.70;2.00;;;32.00;78.70;;;;;;5139576;27;20043;-71
2023/07/11 11:56:19;;;;;;;3.83;1.95;;;32.30;78.00;;;;;;5139253;27;20754;-71
2023/07/11 11:58:53;;;;;;;4.18;2.10;;;32.40;78.20;;;;;;5137274;27;20093;-70
2023/07/11 12:01:30;;;;;;;2.45;1.80;;;32.50;75.60;;;;;;5132766;27;20135;-70
2023/07/11 12:03:56;;;;;;;4.97;2.20;;;32.60;76.70;;;;;;5150395;27;20065;-72
2023/07/11 12:06:30;;;;;;;5.38;2.10;;;32.50;77.40;;;;;;5151060;27;20502;-71
2023/07/11 12:09:18;;;;;;;3.55;2.00;;;32.60;77.60;;;;;;5142534;27;20050;-70
2023/07/11 12:12:01;;;;;;;2.47;1.90;;;32.50;75.40;;;;;;5158294;27;20476;-71
2023/07/11 12:14:52;;;;;;;4.10;2.38;;;32.00;76.50;;;;;;5142442;27;20062;-72
2023/07/11 12:17:32;;;;;;;2.80;2.20;;;32.20;76.80;;;;;;5115855;27;20054;-71
2023/07/11 12:20:01;;;;;;;3.65;2.50;;;32.00;75.70;;;;;;5147587;27;20443;-70
2023/07/11 12:22:39;;;;;;;3.92;2.30;;;32.00;77.20;;;;;;5145324;27;20110;-70
2023/07/11 12:25:07;;;;;;;3.90;1.95;;;31.90;77.90;;;;;;5141971;27;20134;-70
2023/07/11 12:27:33;;;;;;;3.47;2.42;;;31.90;77.40;;;;;;5122139;27;20058;-71
2023/07/11 12:30:00;;;;;;;4.93;2.05;;;31.90;77.50;;;;;;5141688;27;20671;-71
2023/07/11 12:32:51;;;;;;;4.72;2.25;;;31.70;77.00;;;;;;5150238;27;20042;-73
2023/07/11 12:35:25;;;;;;;3.10;2.38;;;31.90;76.10;;;;;;5117303;27;20066;-74
2023/07/11 12:38:00;;;;;;;5.85;2.38;;;31.90;77.60;;;;;;5126877;27;20074;-70
2023/07/11 12:40:48;;;;;;;2.97;1.80;;;31.70;77.60;;;;;;5140735;27;20058;-71
2023/07/11 12:43:31;;;;;;;3.58;1.92;;;31.70;77.90;;;;;;5148457;27;20133;-72
2023/07/11 12:45:58;;;;;;;4.82;2.30;;;31.70;77.30;;;;;;5126537;27;20128;-71
2023/07/11 12:48:30;;;;;;;2.88;2.22;;;31.70;77.50;;;;;;5149816;27;20093;-71
2023/07/11 12:51:00;;;;;;;3.65;2.25;;;31.70;78.00;;;;;;5141482;27;20043;-70
2023/07/11 12:53:26;;;;;;;3.00;2.17;;;31.90;78.50;;;;;;5148652;27;20866;-71
2023/07/11 12:55:54;;;;;;;4.72;2.42;;;31.70;77.80;;;;;;5142983;27;20123;-71
2023/07/11 12:58:31;;;;;;;2.63;2.20;;;31.70;77.60;;;;;;5141016;27;20053;-74
2023/07/11 13:00:59;;;;;;;5.65;2.25;;;31.90;78.10;;;;;;5150117;27;20558;-72